Time;durP1;ratioP1;P1;durP2;ratioP2;P2;SDS_P1;SDS_P2;PMS_P1;PMS_P2;Temp;Humidity;BMP_temperature;BMP_pressure;BME280_temperature;BME280_humidity;BME280_pressure;Samples;Min_cycle;Max_cycle;Signal;HPM_P1;HPM_P2
2021/11/13 00:01:55;;;;;;;22.30;14.70;;;;;;;-1.17;100.00;96155.81;5036267;28;20029;-72
2021/11/13 00:04:21;;;;;;;19.93;14.17;;;;;;;-1.19;100.00;96151.56;5030560;28;20021;-73
2021/11/13 00:06:47;;;;;;;21.50;15.20;;;;;;;-1.26;100.00;96147.69;5019269;28;20471;-73
2021/11/13 00:09:14;;;;;;;20.87;15.03;;;;;;;-1.22;100.00;96145.75;5030620;28;20028;-73
2021/11/13 00:11:41;;;;;;;23.07;15.60;;;;;;;-1.23;100.00;96144.94;5038861;28;20045;-72
2021/11/13 00:14:12;;;;;;;23.63;14.77;;;;;;;-1.26;100.00;96150.28;5029490;28;20546;-73
2021/11/13 00:16:38;;;;;;;21.23;15.67;;;;;;;-1.25;100.00;96145.94;5021997;28;20468;-73
2021/11/13 00:19:04;;;;;;;21.17;14.50;;;;;;;-1.30;100.00;96151.38;5033054;28;20777;-72
2021/11/13 00:21:30;;;;;;;21.70;14.57;;;;;;;-1.29;100.00;96149.63;5027193;28;20036;-72
2021/11/13 00:23:56;;;;;;;19.03;13.80;;;;;;;-1.30;100.00;96146.22;5027417;28;20491;-72
2021/11/13 00:26:22;;;;;;;19.27;13.47;;;;;;;-1.29;100.00;96140.13;4997493;28;21035;-72
2021/11/13 00:28:48;;;;;;;20.00;14.03;;;;;;;-1.28;100.00;96152.09;5002237;28;20460;-72
2021/11/13 00:31:13;;;;;;;20.47;14.37;;;;;;;-1.25;100.00;96140.78;5008355;28;20294;-73
2021/11/13 00:33:39;;;;;;;18.93;13.77;;;;;;;-1.15;100.00;96141.06;5014285;28;20503;-72
2021/11/13 00:36:05;;;;;;;16.90;12.20;;;;;;;-1.14;100.00;96147.88;4999820;28;20035;-73
2021/11/13 00:38:31;;;;;;;15.83;11.07;;;;;;;-1.13;100.00;96154.72;5027056;28;20072;-72
2021/11/13 00:40:56;;;;;;;16.43;11.63;;;;;;;-1.12;100.00;96146.06;5039022;28;20862;-73
2021/11/13 00:43:22;;;;;;;15.43;11.07;;;;;;;-1.05;100.00;96149.94;5022182;28;20061;-72
2021/11/13 00:45:48;;;;;;;14.70;10.97;;;;;;;-0.95;100.00;96159.63;5013684;28;20106;-73
2021/11/13 00:48:14;;;;;;;14.13;10.50;;;;;;;-0.99;100.00;96157.31;5013154;28;20465;-72
2021/11/13 00:50:43;;;;;;;14.77;10.53;;;;;;;-0.98;100.00;96158.97;5021763;28;20443;-73
2021/11/13 00:53:09;;;;;;;14.57;10.33;;;;;;;-1.03;100.00;96155.84;5025516;28;20458;-73
2021/11/13 00:55:34;;;;;;;15.60;10.20;;;;;;;-1.20;100.00;96162.81;5018647;28;20034;-72
2021/11/13 00:58:00;;;;;;;14.83;10.73;;;;;;;-1.24;100.00;96160.50;5005684;28;20422;-73
2021/11/13 01:00:26;;;;;;;14.93;10.13;;;;;;;-1.24;100.00;96156.19;5035763;28;20033;-72
2021/11/13 01:02:52;;;;;;;13.93;10.03;;;;;;;-1.17;100.00;96158.38;5008783;28;20052;-72
2021/11/13 01:05:19;;;;;;;14.17;10.93;;;;;;;-1.33;100.00;96155.88;5015266;28;20037;-72
2021/11/13 01:07:45;;;;;;;16.13;11.60;;;;;;;-1.40;100.00;96157.16;5014631;28;21058;-72
2021/11/13 01:10:17;;;;;;;15.40;11.30;;;;;;;-1.40;100.00;96150.25;5026597;28;21008;-72
2021/11/13 01:12:44;;;;;;;17.07;12.33;;;;;;;-1.35;100.00;96139.66;4996760;28;20530;-72
2021/11/13 01:15:11;;;;;;;17.87;12.33;;;;;;;-1.30;100.00;96141.06;5015909;28;20444;-73
2021/11/13 01:17:38;;;;;;;17.60;12.70;;;;;;;-1.38;100.00;96129.50;5012926;28;20569;-73
2021/11/13 01:20:07;;;;;;;24.13;13.20;;;;;;;-1.36;100.00;96138.81;5012737;28;20498;-73
2021/11/13 01:22:36;;;;;;;19.70;13.37;;;;;;;-1.29;100.00;96147.88;5020554;28;20518;-72
2021/11/13 01:25:02;;;;;;;17.70;12.97;;;;;;;-1.22;100.00;96148.34;5003905;28;20476;-70
2021/11/13 01:27:27;;;;;;;17.43;13.33;;;;;;;-1.22;100.00;96150.91;5005721;28;20541;-71
2021/11/13 01:29:53;;;;;;;18.77;13.17;;;;;;;-1.26;100.00;96146.88;5013449;28;20456;-71
2021/11/13 01:32:24;;;;;;;23.47;14.80;;;;;;;-1.28;100.00;96153.84;5024737;28;20037;-72
2021/11/13 01:34:50;;;;;;;18.43;13.20;;;;;;;-1.29;100.00;96144.47;5029881;28;20626;-71
2021/11/13 01:37:16;;;;;;;20.40;14.03;;;;;;;-1.37;100.00;96144.91;5028434;28;20524;-70
2021/11/13 01:39:41;;;;;;;19.37;13.10;;;;;;;-1.34;100.00;96141.31;5017542;28;20660;-71
2021/11/13 01:42:07;;;;;;;18.50;11.77;;;;;;;-1.35;100.00;96135.31;5034763;28;20037;-71
2021/11/13 01:44:34;;;;;;;19.53;12.90;;;;;;;-1.41;100.00;96148.56;5020086;28;20072;-71
2021/11/13 01:47:02;;;;;;;16.20;11.23;;;;;;;-1.44;100.00;96147.00;5038028;28;20025;-71
2021/11/13 01:49:27;;;;;;;17.00;12.13;;;;;;;-1.46;100.00;96148.00;5017185;28;20516;-71
2021/11/13 01:51:53;;;;;;;18.40;12.47;;;;;;;-1.48;100.00;96139.53;5016646;28;20483;-71
2021/11/13 01:54:19;;;;;;;17.13;12.70;;;;;;;-1.49;100.00;96146.44;5039709;28;20083;-71
2021/11/13 01:56:47;;;;;;;19.50;12.67;;;;;;;-1.44;100.00;96146.19;5023915;28;20060;-71
2021/11/13 01:59:13;;;;;;;18.13;12.67;;;;;;;-1.49;100.00;96149.00;4995774;28;21087;-71
2021/11/13 02:01:40;;;;;;;18.53;12.63;;;;;;;-1.51;100.00;96135.41;5018667;28;20510;-71
2021/11/13 02:04:05;;;;;;;18.13;12.17;;;;;;;-1.49;100.00;96132.72;5017795;28;20135;-71
2021/11/13 02:06:32;;;;;;;20.13;13.57;;;;;;;-1.45;100.00;96126.44;5023415;28;20975;-71
2021/11/13 02:08:58;;;;;;;18.80;13.40;;;;;;;-1.49;100.00;96127.56;5038637;28;20526;-71
2021/11/13 02:11:27;;;;;;;20.27;12.97;;;;;;;-1.45;100.00;96131.59;5036313;28;20040;-71
2021/11/13 02:13:59;;;;;;;20.73;13.10;;;;;;;-1.47;100.00;96123.97;5022959;28;20460;-71
2021/11/13 02:16:26;;;;;;;20.47;13.40;;;;;;;-1.48;100.00;96124.88;5027436;28;20463;-71
2021/11/13 02:18:52;;;;;;;22.10;14.57;;;;;;;-1.51;100.00;96125.06;5030861;28;20555;-71
2021/11/13 02:21:18;;;;;;;16.50;12.40;;;;;;;-1.54;100.00;96120.09;5027374;28;20613;-71
2021/11/13 02:23:44;;;;;;;18.43;12.40;;;;;;;-1.51;100.00;96124.22;5005631;28;20455;-71
2021/11/13 02:26:11;;;;;;;17.40;13.33;;;;;;;-1.47;100.00;96136.03;5026215;28;20499;-71
2021/11/13 02:28:37;;;;;;;16.57;12.43;;;;;;;-1.44;100.00;96130.72;5012987;28;20030;-71
2021/11/13 02:31:06;;;;;;;15.53;11.70;;;;;;;-1.51;100.00;96143.13;5037351;28;20468;-71
2021/11/13 02:33:32;;;;;;;15.87;11.00;;;;;;;-1.52;100.00;96138.88;5027164;28;20047;-71
2021/11/13 02:35:58;;;;;;;15.03;10.90;;;;;;;-1.48;100.00;96147.25;5015141;28;20500;-71
2021/11/13 02:38:29;;;;;;;16.93;11.20;;;;;;;-1.48;100.00;96147.25;5033917;28;20551;-71
2021/11/13 02:40:58;;;;;;;17.00;10.98;;;;;;;-1.47;100.00;96143.78;5017308;28;20466;-71
2021/11/13 02:43:27;;;;;;;14.73;10.73;;;;;;;-1.34;100.00;96149.91;5031712;28;20116;-72
2021/11/13 02:45:55;;;;;;;16.43;10.10;;;;;;;-1.30;100.00;96153.13;5015773;28;21158;-73
2021/11/13 02:48:22;;;;;;;13.73;9.73;;;;;;;-1.34;100.00;96146.47;5014094;28;20516;-73
2021/11/13 02:50:49;;;;;;;14.40;9.87;;;;;;;-1.45;100.00;96150.50;4996588;28;20884;-73
2021/11/13 02:53:21;;;;;;;13.73;9.77;;;;;;;-1.33;100.00;96151.56;5014274;28;20472;-73
2021/11/13 02:55:49;;;;;;;16.73;9.87;;;;;;;-1.36;100.00;96156.88;5030280;28;20479;-72
2021/11/13 02:58:18;;;;;;;13.67;9.97;;;;;;;-1.30;100.00;96158.28;5011943;28;20821;-72
2021/11/13 03:00:46;;;;;;;16.67;10.97;;;;;;;-1.37;100.00;96150.06;5012004;28;20467;-73
2021/11/13 03:03:20;;;;;;;14.37;10.27;;;;;;;-1.32;100.00;96160.13;5017677;28;20859;-73
2021/11/13 03:05:47;;;;;;;;;;;;;;;-1.36;100.00;96164.63;5016129;28;20483;-73
2021/11/13 03:08:21;;;;;;;14.37;8.53;;;;;;;-1.37;100.00;96154.41;5019085;28;19975;-73
2021/11/13 03:10:47;;;;;;;14.00;9.63;;;;;;;-1.38;100.00;96161.28;5013169;28;20464;-72
2021/11/13 03:13:13;;;;;;;14.07;9.53;;;;;;;-1.40;100.00;96163.16;5025570;28;20452;-73
2021/11/13 03:15:47;;;;;;;17.27;10.37;;;;;;;-1.39;100.00;96159.63;5024319;28;20805;-72
2021/11/13 03:18:12;;;;;;;;;;;;;;;-1.39;100.00;96163.97;5008287;28;20124;-73
2021/11/13 03:20:38;;;;;;;15.67;9.90;;;;;;;-1.43;100.00;96165.91;5018151;28;20008;-73
2021/11/13 03:23:04;;;;;;;15.63;11.33;;;;;;;-1.45;100.00;96163.38;5020862;28;20064;-72
2021/11/13 03:25:37;;;;;;;14.67;10.73;;;;;;;-1.42;100.00;96164.97;5005921;28;20033;-73
2021/11/13 03:28:05;;;;;;;17.75;11.43;;;;;;;-1.39;100.00;96169.13;4997780;28;20109;-72
2021/11/13 03:30:35;;;;;;;16.43;11.13;;;;;;;-1.44;100.00;96172.81;5026281;28;20112;-72
2021/11/13 03:33:02;;;;;;;15.03;10.77;;;;;;;-1.45;100.00;96175.47;5014238;28;20460;-73
2021/11/13 03:35:28;;;;;;;15.60;10.17;;;;;;;-1.43;100.00;96171.06;5022161;28;20443;-73
2021/11/13 03:38:06;;;;;;;19.73;12.40;;;;;;;-1.40;100.00;96173.47;5036710;28;20479;-73
2021/11/13 03:40:33;;;;;;;14.97;10.97;;;;;;;-1.37;100.00;96177.63;5015331;28;20476;-72
2021/11/13 03:42:59;;;;;;;16.23;10.80;;;;;;;-1.33;100.00;96171.34;5035385;28;20478;-73
2021/11/13 03:45:25;;;;;;;15.00;10.70;;;;;;;-1.34;100.00;96164.53;5024233;28;21027;-73
2021/11/13 03:47:52;;;;;;;14.63;10.33;;;;;;;-1.47;100.00;96156.69;5013017;28;20029;-73
2021/11/13 03:50:18;;;;;;;15.30;10.60;;;;;;;-1.49;100.00;96166.25;5000166;28;20968;-72
2021/11/13 03:52:44;;;;;;;16.47;10.93;;;;;;;-1.39;100.00;96157.06;5019480;28;20450;-73
2021/11/13 03:55:09;;;;;;;15.63;10.50;;;;;;;-1.49;100.00;96164.50;5035967;28;20057;-72
2021/11/13 03:57:35;;;;;;;16.70;11.27;;;;;;;-1.46;100.00;96158.34;5041380;28;20515;-72
2021/11/13 04:00:02;;;;;;;19.27;11.73;;;;;;;-1.50;100.00;96156.84;5017660;28;20052;-72
2021/11/13 04:02:40;;;;;;;17.70;12.20;;;;;;;-1.54;100.00;96163.06;5018662;28;20457;-73
2021/11/13 04:05:07;;;;;;;17.67;12.13;;;;;;;-1.51;100.00;96166.34;5013762;28;20475;-73
2021/11/13 04:07:32;;;;;;;16.57;11.83;;;;;;;-1.44;100.00;96170.22;5013544;28;20448;-73
2021/11/13 04:09:58;;;;;;;18.33;12.20;;;;;;;-1.39;100.00;96175.09;5021943;28;20521;-72
2021/11/13 04:12:24;;;;;;;16.73;11.80;;;;;;;-1.39;100.00;96161.38;5024036;28;20172;-73
2021/11/13 04:14:50;;;;;;;26.33;17.27;;;;;;;-1.38;100.00;96161.28;5021690;28;20041;-73
2021/11/13 04:17:15;;;;;;;53.57;27.87;;;;;;;-1.37;100.00;96169.88;5003614;28;20120;-72
2021/11/13 04:19:42;;;;;;;52.00;28.23;;;;;;;-1.38;100.00;96166.44;5018148;28;20434;-73
2021/11/13 04:22:07;;;;;;;110.57;45.07;;;;;;;-1.33;100.00;96164.44;5030368;28;20033;-72
2021/11/13 04:24:34;;;;;;;51.13;25.57;;;;;;;-1.36;100.00;96159.47;5028037;28;20546;-72
2021/11/13 04:27:00;;;;;;;62.33;31.83;;;;;;;-1.33;100.00;96159.28;5018278;28;20135;-71
2021/11/13 04:29:27;;;;;;;22.97;14.23;;;;;;;-1.33;100.00;96156.72;5028103;28;20476;-71
2021/11/13 04:31:52;;;;;;;17.20;12.70;;;;;;;-1.35;100.00;96150.78;5043103;28;20443;-71
2021/11/13 04:34:24;;;;;;;16.80;12.27;;;;;;;-1.37;100.00;96147.50;5034255;28;21004;-71
2021/11/13 04:36:54;;;;;;;18.30;12.23;;;;;;;-1.35;100.00;96148.22;4999621;28;20045;-71
2021/11/13 04:39:23;;;;;;;19.90;12.83;;;;;;;-1.40;100.00;96144.25;5017911;28;20482;-72
2021/11/13 04:41:50;;;;;;;19.67;12.90;;;;;;;-1.33;100.00;96141.22;5041566;28;20575;-71
2021/11/13 04:44:19;;;;;;;18.10;12.43;;;;;;;-1.30;100.00;96145.38;5038732;28;20553;-71
2021/11/13 04:46:45;;;;;;;18.50;12.03;;;;;;;-1.26;100.00;96144.28;5030550;28;20420;-72
2021/11/13 04:49:14;;;;;;;22.50;14.17;;;;;;;-1.23;100.00;96146.69;5033174;28;20472;-71
2021/11/13 04:51:42;;;;;;;18.67;13.37;;;;;;;-1.17;100.00;96150.63;5032991;28;20448;-71
2021/11/13 04:54:08;;;;;;;23.67;18.73;;;;;;;-1.15;100.00;96139.31;5031741;28;20472;-71
2021/11/13 04:56:33;;;;;;;19.97;15.03;;;;;;;-1.03;100.00;96137.78;5030665;28;20526;-71
2021/11/13 04:58:59;;;;;;;19.83;14.23;;;;;;;-1.00;100.00;96141.00;5032584;28;20451;-71
2021/11/13 05:01:25;;;;;;;19.90;14.40;;;;;;;-0.98;100.00;96139.16;5036693;28;20029;-71
2021/11/13 05:03:51;;;;;;;19.37;13.97;;;;;;;-0.88;100.00;96142.00;5028885;28;20037;-71
2021/11/13 05:06:18;;;;;;;17.73;12.50;;;;;;;-0.92;100.00;96137.97;5016244;28;20032;-71
2021/11/13 05:08:44;;;;;;;18.27;12.63;;;;;;;-0.90;100.00;96133.56;5026705;28;20483;-71
2021/11/13 05:11:10;;;;;;;17.33;12.10;;;;;;;-0.88;100.00;96138.59;5036087;28;20447;-72
2021/11/13 05:13:35;;;;;;;18.00;13.10;;;;;;;-0.82;100.00;96131.31;5019779;28;20063;-72
2021/11/13 05:16:01;;;;;;;17.87;12.20;;;;;;;-0.74;100.00;96131.72;5035067;28;20046;-73
2021/11/13 05:18:27;;;;;;;17.43;11.53;;;;;;;-0.69;100.00;96128.00;5004854;28;20045;-73
2021/11/13 05:20:52;;;;;;;17.33;12.77;;;;;;;-0.69;100.00;96128.00;5012818;28;20104;-72
2021/11/13 05:23:18;;;;;;;17.33;11.20;;;;;;;-0.66;100.00;96126.06;5028226;28;20064;-73
2021/11/13 05:25:43;;;;;;;18.77;10.73;;;;;;;-0.64;100.00;96131.97;5025287;28;20429;-73
2021/11/13 05:28:09;;;;;;;16.37;10.93;;;;;;;-0.65;100.00;96121.72;5023207;28;20041;-73
2021/11/13 05:30:35;;;;;;;19.33;12.63;;;;;;;-0.64;100.00;96125.97;5026732;28;20030;-72
2021/11/13 05:33:01;;;;;;;17.67;12.27;;;;;;;-0.64;100.00;96126.78;5033493;28;20415;-73
2021/11/13 05:35:26;;;;;;;14.97;10.77;;;;;;;-0.77;100.00;96124.16;5028434;28;20025;-72
2021/11/13 05:37:54;;;;;;;14.97;9.87;;;;;;;-0.63;100.00;96132.81;5003305;28;20038;-73
2021/11/13 05:40:20;;;;;;;16.63;10.63;;;;;;;-0.63;100.00;96130.22;5029909;28;20486;-73
2021/11/13 05:42:47;;;;;;;15.27;11.10;;;;;;;-0.55;100.00;96131.41;5015246;28;20494;-73
2021/11/13 05:45:14;;;;;;;17.03;11.03;;;;;;;-0.53;100.00;96126.16;5022521;28;20467;-73
2021/11/13 05:47:42;;;;;;;16.13;10.43;;;;;;;-0.60;100.00;96124.88;5033667;28;20463;-73
2021/11/13 05:50:12;;;;;;;17.43;11.13;;;;;;;-0.61;100.00;96125.78;5019427;28;20538;-73
2021/11/13 05:52:44;;;;;;;14.47;10.17;;;;;;;-0.55;100.00;96126.25;5007545;28;20474;-73
2021/11/13 05:55:11;;;;;;;15.03;11.27;;;;;;;-0.48;100.00;96122.34;4995857;28;20961;-73
2021/11/13 05:57:38;;;;;;;17.73;11.43;;;;;;;-0.41;100.00;96124.56;5006037;28;20456;-73
2021/11/13 06:00:11;;;;;;;18.67;12.63;;;;;;;-0.27;100.00;96130.53;5042497;28;20427;-73
2021/11/13 06:02:41;;;;;;;18.13;12.10;;;;;;;-0.27;100.00;96127.09;5029916;28;20446;-72
2021/11/13 06:05:08;;;;;;;18.40;11.73;;;;;;;-0.21;100.00;96136.25;5006791;28;20541;-73
2021/11/13 06:07:34;;;;;;;16.47;11.00;;;;;;;-0.24;100.00;96140.66;5040299;28;20471;-72
2021/11/13 06:10:01;;;;;;;14.50;10.83;;;;;;;-0.26;100.00;96145.13;5031637;28;20451;-73
2021/11/13 06:12:26;;;;;;;22.23;13.47;;;;;;;-0.19;100.00;96148.16;5004771;28;20451;-72
2021/11/13 06:14:52;;;;;;;48.87;24.43;;;;;;;-0.12;100.00;96151.19;5017463;28;20518;-72
2021/11/13 06:17:18;;;;;;;31.83;19.90;;;;;;;-0.05;100.00;96155.03;5020727;28;20013;-72
2021/11/13 06:19:43;;;;;;;17.70;12.00;;;;;;;0.00;100.00;96163.34;5001162;28;20304;-73
2021/11/13 06:22:09;;;;;;;15.60;10.47;;;;;;;0.02;100.00;96160.66;5025898;28;20103;-72
2021/11/13 06:24:35;;;;;;;15.43;10.00;;;;;;;0.06;100.00;96164.69;5031223;28;20041;-72
2021/11/13 06:27:01;;;;;;;13.70;9.50;;;;;;;0.12;100.00;96167.72;5022043;28;20510;-72
2021/11/13 06:29:27;;;;;;;16.63;12.10;;;;;;;0.17;100.00;96170.88;5015153;28;20051;-73
2021/11/13 06:31:52;;;;;;;16.10;12.30;;;;;;;-0.04;100.00;96177.38;5016514;28;20049;-73
2021/11/13 06:34:18;;;;;;;15.43;12.00;;;;;;;0.04;100.00;96169.16;5035070;28;20033;-73
2021/11/13 06:36:44;;;;;;;20.30;14.10;;;;;;;0.09;100.00;96177.44;5018339;28;20061;-73
2021/11/13 06:39:09;;;;;;;17.27;12.70;;;;;;;-0.12;100.00;96180.44;5020847;28;20041;-73
2021/11/13 06:41:35;;;;;;;14.50;10.70;;;;;;;-0.13;100.00;96183.97;5032627;28;20033;-73
2021/11/13 06:44:01;;;;;;;14.50;9.80;;;;;;;-0.17;100.00;96177.28;5004115;28;20033;-73
2021/11/13 06:46:27;;;;;;;15.00;11.23;;;;;;;-0.12;100.00;96177.03;5024192;28;20491;-72
2021/11/13 06:48:53;;;;;;;17.57;11.63;;;;;;;-0.08;100.00;96179.31;5031571;28;20476;-73
2021/11/13 06:51:21;;;;;;;28.73;17.37;;;;;;;-0.08;100.00;96175.91;5026071;28;20450;-73
2021/11/13 06:53:47;;;;;;;17.83;11.87;;;;;;;-0.12;100.00;96177.03;5002075;28;20732;-73
2021/11/13 06:56:14;;;;;;;15.27;11.03;;;;;;;-0.03;100.00;96173.88;5013475;28;20447;-73
2021/11/13 06:58:46;;;;;;;19.07;13.63;;;;;;;0.07;100.00;96174.09;5018075;28;20480;-73
2021/11/13 07:01:13;;;;;;;16.30;11.23;;;;;;;0.21;100.00;96167.16;5031212;28;20446;-73
2021/11/13 07:03:39;;;;;;;19.03;12.73;;;;;;;0.41;100.00;96165.06;5039260;28;20544;-71
2021/11/13 07:06:05;;;;;;;17.00;11.93;;;;;;;0.46;100.00;96156.06;5015573;28;20543;-72
2021/11/13 07:08:30;;;;;;;15.87;10.10;;;;;;;0.57;100.00;96162.28;5043152;28;20132;-72
2021/11/13 07:10:56;;;;;;;16.67;9.97;;;;;;;0.68;100.00;96155.50;5037866;28;20037;-72
2021/11/13 07:13:23;;;;;;;18.93;12.07;;;;;;;0.76;100.00;96156.75;5041352;28;20049;-72
2021/11/13 07:15:51;;;;;;;18.03;10.23;;;;;;;0.82;100.00;96157.16;5020460;28;20033;-72
2021/11/13 07:18:17;;;;;;;17.13;10.40;;;;;;;0.86;100.00;96148.25;5027399;28;20479;-72
2021/11/13 07:21:01;;;;;;;18.00;11.50;;;;;;;0.88;100.00;96145.59;5029736;28;21015;-72
2021/11/13 07:23:29;;;;;;;16.57;10.80;;;;;;;0.99;100.00;96147.47;5047411;28;20431;-72
2021/11/13 07:25:57;;;;;;;16.23;10.13;;;;;;;1.05;100.00;96154.81;5036491;28;20517;-72
2021/11/13 07:28:35;;;;;;;18.07;10.50;;;;;;;1.14;100.00;96149.00;5036105;28;20529;-72
2021/11/13 07:31:01;;;;;;;16.97;12.00;;;;;;;1.19;100.00;96146.94;5019944;28;20466;-72
2021/11/13 07:33:27;;;;;;;16.70;11.70;;;;;;;1.27;100.00;96138.66;5005890;28;21058;-72
2021/11/13 07:35:53;;;;;;;16.90;10.67;;;;;;;1.22;100.00;96138.97;5038582;28;20459;-72
2021/11/13 07:38:19;;;;;;;17.10;10.73;;;;;;;1.27;100.00;96136.06;5017131;28;20535;-72
2021/11/13 07:40:44;;;;;;;19.67;11.27;;;;;;;1.33;100.00;96140.81;5044947;28;20040;-72
2021/11/13 07:43:11;;;;;;;17.53;11.50;;;;;;;1.41;100.00;96134.19;5008725;28;20031;-72
2021/11/13 07:45:37;;;;;;;17.27;11.00;;;;;;;1.48;100.00;96138.97;5031981;28;20033;-72
2021/11/13 07:48:07;;;;;;;15.33;10.83;;;;;;;1.58;100.00;96132.19;5038391;28;20500;-72
2021/11/13 07:50:35;;;;;;;16.87;10.87;;;;;;;1.66;100.00;96142.84;5023203;28;20033;-72
2021/11/13 07:53:05;;;;;;;16.63;9.80;;;;;;;1.69;100.00;96134.88;5038005;28;21023;-72
2021/11/13 07:55:31;;;;;;;16.07;9.97;;;;;;;1.79;100.00;96140.25;5024416;28;20514;-74
2021/11/13 07:57:57;;;;;;;16.07;10.20;;;;;;;1.82;100.00;96147.81;5029281;28;20495;-74
2021/11/13 08:00:23;;;;;;;13.77;9.97;;;;;;;1.91;100.00;96138.53;5038299;28;20501;-74
2021/11/13 08:02:48;;;;;;;14.80;10.40;;;;;;;2.00;100.00;96140.47;5033543;28;20029;-72
2021/11/13 08:05:15;;;;;;;16.90;10.80;;;;;;;2.07;100.00;96142.53;5037823;28;20063;-72
2021/11/13 08:07:43;;;;;;;14.93;10.67;;;;;;;2.12;100.00;96145.63;5043531;28;20028;-72
2021/11/13 08:10:10;;;;;;;17.80;12.10;;;;;;;2.21;100.00;96145.91;5039052;28;20602;-72
2021/11/13 08:12:36;;;;;;;18.33;12.43;;;;;;;2.30;100.00;96147.84;5044762;28;20490;-72
2021/11/13 08:15:02;;;;;;;16.80;10.73;;;;;;;2.41;100.00;96147.88;5042919;28;20451;-72
2021/11/13 08:17:28;;;;;;;18.67;12.60;;;;;;;2.44;100.00;96149.44;5020978;28;20026;-72
2021/11/13 08:19:54;;;;;;;18.17;12.07;;;;;;;2.51;100.00;96143.66;5036552;28;20515;-72
2021/11/13 08:22:20;;;;;;;16.23;11.60;;;;;;;2.49;100.00;96142.97;5047706;28;20033;-72
2021/11/13 08:24:50;;;;;;;15.73;11.37;;;;;;;2.49;100.00;96145.56;5006287;28;20132;-71
2021/11/13 08:27:16;;;;;;;17.80;11.13;;;;;;;2.50;100.00;96149.00;5041600;28;20037;-72
2021/11/13 08:29:42;;;;;;;16.23;10.00;;;;;;;2.51;100.00;96148.88;5025748;28;20029;-72
2021/11/13 08:32:08;;;;;;;15.53;10.47;;;;;;;2.57;100.00;96156.22;5039727;28;20029;-73
2021/11/13 08:34:35;;;;;;;15.87;11.67;;;;;;;3.10;100.00;96144.56;5009686;28;20025;-73
2021/11/13 08:37:01;;;;;;;14.73;9.43;;;;;;;2.84;100.00;96145.56;5012305;28;20479;-73
2021/11/13 08:39:33;;;;;;;13.30;8.57;;;;;;;2.86;100.00;96147.22;5015700;28;20041;-73
2021/11/13 08:42:01;;;;;;;13.63;9.40;;;;;;;2.87;100.00;96157.50;5030576;28;20052;-73
2021/11/13 08:44:27;;;;;;;13.40;8.53;;;;;;;2.98;100.00;96143.69;5035546;28;20565;-73
2021/11/13 08:46:55;;;;;;;12.10;9.13;;;;;;;2.94;100.00;96147.47;5030799;28;20109;-73
2021/11/13 08:49:23;;;;;;;12.60;8.47;;;;;;;2.94;100.00;96142.28;5037040;28;20021;-74
2021/11/13 08:51:49;;;;;;;11.93;8.23;;;;;;;2.99;100.00;96135.81;5030194;28;20477;-73
2021/11/13 08:54:14;;;;;;;11.20;7.20;;;;;;;3.09;100.00;96140.31;5006323;28;20079;-73
2021/11/13 08:56:40;;;;;;;15.73;9.40;;;;;;;3.31;100.00;96132.53;5024525;28;20029;-73
2021/11/13 08:59:08;;;;;;;11.00;8.23;;;;;;;3.27;100.00;96142.34;5002162;28;20296;-73
2021/11/13 09:01:34;;;;;;;11.17;7.80;;;;;;;3.18;100.00;96137.84;5025088;28;20029;-74
2021/11/13 09:04:00;;;;;;;11.87;8.13;;;;;;;3.21;100.00;96134.19;5022664;28;20024;-73
2021/11/13 09:06:30;;;;;;;11.13;8.53;;;;;;;3.21;100.00;96135.00;5021808;28;20091;-73
2021/11/13 09:08:58;;;;;;;12.67;8.53;;;;;;;3.12;100.00;96134.88;5038157;28;20549;-74
2021/11/13 09:11:27;;;;;;;13.63;8.97;;;;;;;3.11;100.00;96135.81;5043009;28;20090;-73
2021/11/13 09:13:55;;;;;;;12.83;9.43;;;;;;;3.19;100.00;96134.31;5025131;28;20037;-72
2021/11/13 09:16:21;;;;;;;11.67;8.57;;;;;;;3.18;100.00;96140.44;5014792;28;20030;-72
2021/11/13 09:18:47;;;;;;;13.27;8.83;;;;;;;3.22;100.00;96135.81;5014008;28;20033;-72
2021/11/13 09:21:14;;;;;;;13.20;9.20;;;;;;;3.22;100.00;96138.44;5016013;28;20029;-72
2021/11/13 09:23:39;;;;;;;15.57;9.10;;;;;;;3.19;100.00;96142.09;5013866;28;20049;-71
2021/11/13 09:26:06;;;;;;;15.97;9.67;;;;;;;3.22;100.00;96141.03;5039515;28;20057;-72
2021/11/13 09:28:34;;;;;;;14.03;9.67;;;;;;;3.18;100.00;96135.22;5040564;28;20032;-71
2021/11/13 09:31:01;;;;;;;18.23;11.50;;;;;;;3.27;100.00;96138.91;5038974;28;20094;-71
2021/11/13 09:33:28;;;;;;;17.57;11.17;;;;;;;3.33;100.00;96129.84;5029491;28;20033;-72
2021/11/13 09:35:54;;;;;;;15.93;10.13;;;;;;;3.35;100.00;96135.72;5038849;28;20025;-72
2021/11/13 09:38:34;;;;;;;14.07;8.83;;;;;;;3.47;100.00;96145.19;5044901;28;20113;-72
2021/11/13 09:41:02;;;;;;;13.53;8.90;;;;;;;3.57;100.00;96143.53;5018777;28;20068;-72
2021/11/13 09:43:29;;;;;;;15.47;10.03;;;;;;;3.57;100.00;96150.53;5035052;28;20028;-73
2021/11/13 09:45:57;;;;;;;13.33;8.97;;;;;;;3.64;100.00;96151.69;5022885;28;20758;-73
2021/11/13 09:48:23;;;;;;;11.23;7.93;;;;;;;3.73;100.00;96156.19;5035760;28;20031;-73
2021/11/13 09:50:50;;;;;;;11.00;8.00;;;;;;;3.77;100.00;96149.81;5035149;28;20659;-72
2021/11/13 09:53:19;;;;;;;9.73;6.77;;;;;;;3.80;100.00;96146.97;5000464;28;20036;-72
2021/11/13 09:55:45;;;;;;;12.93;8.40;;;;;;;3.95;100.00;96148.34;5045017;28;20042;-72
2021/11/13 09:58:12;;;;;;;15.53;8.97;;;;;;;3.99;100.00;96144.59;5017718;28;20088;-71
2021/11/13 10:00:40;;;;;;;12.83;8.50;;;;;;;3.97;100.00;96143.88;5023837;28;20406;-72
2021/11/13 10:03:07;;;;;;;11.07;6.80;;;;;;;4.03;100.00;96147.78;5005473;28;20036;-72
2021/11/13 10:05:34;;;;;;;23.37;11.47;;;;;;;4.15;100.00;96140.75;5012196;28;20021;-73
2021/11/13 10:08:00;;;;;;;31.07;16.33;;;;;;;4.27;100.00;96147.59;5017203;28;20132;-73
2021/11/13 10:10:38;;;;;;;14.63;9.10;;;;;;;4.33;100.00;96143.69;5000958;28;20068;-72
2021/11/13 10:13:23;;;;;;;13.07;7.90;;;;;;;4.44;100.00;96147.06;5038314;28;20033;-73
2021/11/13 10:15:52;;;;;;;9.97;7.13;;;;;;;4.45;100.00;96138.28;5027043;28;20025;-72
2021/11/13 10:18:20;;;;;;;11.67;8.17;;;;;;;4.52;100.00;96135.19;5015230;28;20036;-73
2021/11/13 10:20:57;;;;;;;13.83;7.97;;;;;;;4.66;100.00;96127.94;5038078;28;20037;-73
2021/11/13 10:23:25;;;;;;;11.47;7.67;;;;;;;4.77;100.00;96111.41;5036732;28;20098;-73
2021/11/13 10:26:00;;;;;;;10.43;7.30;;;;;;;4.84;100.00;96111.75;5025626;28;20032;-72
2021/11/13 10:28:27;;;;;;;12.50;6.87;;;;;;;4.87;100.00;96114.09;5040541;28;20270;-73
2021/11/13 10:31:15;;;;;;;12.23;7.20;;;;;;;4.86;100.00;96108.06;5010956;28;20030;-72
2021/11/13 10:33:41;;;;;;;11.03;6.97;;;;;;;4.89;100.00;96102.56;5013332;28;20124;-72
2021/11/13 10:36:08;;;;;;;10.93;6.77;;;;;;;5.00;100.00;96100.84;5035139;28;20045;-72
2021/11/13 10:38:35;;;;;;;11.63;6.77;;;;;;;4.99;100.00;96100.03;5043622;28;20035;-72
2021/11/13 10:41:06;;;;;;;11.30;6.83;;;;;;;5.02;100.00;96106.75;5045259;28;20430;-72
2021/11/13 10:43:37;;;;;;;10.63;6.87;;;;;;;5.17;100.00;96097.69;5037976;28;20067;-72
2021/11/13 10:46:06;;;;;;;12.30;7.83;;;;;;;5.24;100.00;96093.59;5016158;28;20044;-73
2021/11/13 10:48:39;;;;;;;11.37;8.10;;;;;;;5.25;100.00;96097.84;5022321;28;20080;-73
2021/11/13 10:51:14;;;;;;;14.50;8.83;;;;;;;5.29;100.00;96099.22;5018018;28;20086;-73
2021/11/13 10:53:41;;;;;;;10.80;6.77;;;;;;;5.36;100.00;96100.34;5014502;28;20386;-73
2021/11/13 10:56:13;;;;;;;9.17;5.77;;;;;;;5.53;100.00;96103.31;5011444;28;20056;-73
2021/11/13 10:58:50;;;;;;;9.73;6.27;;;;;;;5.61;100.00;96098.28;5014255;28;20056;-73
2021/11/13 11:01:22;;;;;;;10.00;6.43;;;;;;;5.69;100.00;96093.22;5031913;28;20482;-73
2021/11/13 11:03:48;;;;;;;8.70;5.20;;;;;;;5.76;100.00;96086.50;5036322;28;20026;-73
2021/11/13 11:06:24;;;;;;;11.23;6.20;;;;;;;5.82;100.00;96088.59;5030147;28;20079;-72
2021/11/13 11:08:49;;;;;;;11.33;6.70;;;;;;;5.82;100.00;96088.59;5037655;28;20047;-72
2021/11/13 11:11:35;;;;;;;11.13;6.80;;;;;;;5.75;100.00;96087.47;5023302;28;20308;-72
2021/11/13 11:14:03;;;;;;;9.23;5.53;;;;;;;5.70;100.00;96079.22;5019786;28;20549;-73
2021/11/13 11:16:40;;;;;;;11.40;6.27;;;;;;;5.73;100.00;96086.75;5022815;28;20028;-73